sensor_id;sensor_type;location;lat;lon;timestamp;temperature;humidity
52107;DHT22;38105;52.968;5.974;2022-08-21T00:02:20;15.90;99.90
52107;DHT22;38105;52.968;5.974;2022-08-21T00:04:46;15.80;99.90
52107;DHT22;38105;52.968;5.974;2022-08-21T00:07:12;16.00;99.90
52107;DHT22;38105;52.968;5.974;2022-08-21T00:09:38;15.80;99.90
52107;DHT22;38105;52.968;5.974;2022-08-21T00:12:04;16.00;99.90
52107;DHT22;38105;52.968;5.974;2022-08-21T00:14:30;15.80;99.90
52107;DHT22;38105;52.968;5.974;2022-08-21T00:16:58;15.80;99.90
52107;DHT22;38105;52.968;5.974;2022-08-21T00:19:24;15.90;99.90
52107;DHT22;38105;52.968;5.974;2022-08-21T00:21:51;15.80;99.90
52107;DHT22;38105;52.968;5.974;2022-08-21T00:24:18;15.70;99.90
52107;DHT22;38105;52.968;5.974;2022-08-21T00:26:44;15.60;99.90
52107;DHT22;38105;52.968;5.974;2022-08-21T00:29:10;15.70;99.90
52107;DHT22;38105;52.968;5.974;2022-08-21T00:31:36;15.60;99.90
52107;DHT22;38105;52.968;5.974;2022-08-21T00:34:02;15.60;99.90
52107;DHT22;38105;52.968;5.974;2022-08-21T00:36:29;15.50;99.90
52107;DHT22;38105;52.968;5.974;2022-08-21T00:38:55;15.60;99.90
52107;DHT22;38105;52.968;5.974;2022-08-21T00:41:21;15.60;99.90
52107;DHT22;38105;52.968;5.974;2022-08-21T00:43:48;15.50;99.90
52107;DHT22;38105;52.968;5.974;2022-08-21T00:46:15;15.40;99.90
52107;DHT22;38105;52.968;5.974;2022-08-21T00:48:41;15.50;99.90
52107;DHT22;38105;52.968;5.974;2022-08-21T00:51:13;15.30;99.90
52107;DHT22;38105;52.968;5.974;2022-08-21T00:53:44;15.30;99.90
52107;DHT22;38105;52.968;5.974;2022-08-21T00:56:11;15.50;99.90
52107;DHT22;38105;52.968;5.974;2022-08-21T00:58:39;15.40;99.90
52107;DHT22;38105;52.968;5.974;2022-08-21T01:01:08;15.50;99.90
52107;DHT22;38105;52.968;5.974;2022-08-21T01:03:35;15.40;99.90
52107;DHT22;38105;52.968;5.974;2022-08-21T01:06:02;15.40;99.90
52107;DHT22;38105;52.968;5.974;2022-08-21T01:08:28;15.40;99.90
52107;DHT22;38105;52.968;5.974;2022-08-21T01:10:55;15.40;99.90
52107;DHT22;38105;52.968;5.974;2022-08-21T01:13:22;15.30;99.90
52107;DHT22;38105;52.968;5.974;2022-08-21T01:15:51;15.30;99.90
52107;DHT22;38105;52.968;5.974;2022-08-21T01:18:19;15.30;99.90
52107;DHT22;38105;52.968;5.974;2022-08-21T01:21:06;15.20;99.90
52107;DHT22;38105;52.968;5.974;2022-08-21T01:23:33;15.30;99.90
52107;DHT22;38105;52.968;5.974;2022-08-21T01:25:59;15.20;99.90
52107;DHT22;38105;52.968;5.974;2022-08-21T01:28:26;15.30;99.90
52107;DHT22;38105;52.968;5.974;2022-08-21T01:30:53;15.20;99.90
52107;DHT22;38105;52.968;5.974;2022-08-21T01:33:22;15.10;99.90
52107;DHT22;38105;52.968;5.974;2022-08-21T01:35:50;15.10;99.90
52107;DHT22;38105;52.968;5.974;2022-08-21T01:38:16;15.20;99.90
52107;DHT22;38105;52.968;5.974;2022-08-21T01:40:46;15.20;99.90
52107;DHT22;38105;52.968;5.974;2022-08-21T01:43:11;15.00;99.90
52107;DHT22;38105;52.968;5.974;2022-08-21T01:45:37;14.90;99.90
52107;DHT22;38105;52.968;5.974;2022-08-21T01:48:03;14.90;99.90
52107;DHT22;38105;52.968;5.974;2022-08-21T01:50:29;14.90;99.90
52107;DHT22;38105;52.968;5.974;2022-08-21T01:52:55;15.00;99.90
52107;DHT22;38105;52.968;5.974;2022-08-21T01:55:21;14.80;99.90
52107;DHT22;38105;52.968;5.974;2022-08-21T01:57:47;14.90;99.90
52107;DHT22;38105;52.968;5.974;2022-08-21T02:00:15;14.90;99.90
52107;DHT22;38105;52.968;5.974;2022-08-21T02:02:42;14.80;99.90
52107;DHT22;38105;52.968;5.974;2022-08-21T02:05:10;14.70;99.90
52107;DHT22;38105;52.968;5.974;2022-08-21T02:07:44;14.90;99.90
52107;DHT22;38105;52.968;5.974;2022-08-21T02:10:12;14.80;99.90
52107;DHT22;38105;52.968;5.974;2022-08-21T02:12:38;14.70;99.90
52107;DHT22;38105;52.968;5.974;2022-08-21T02:15:05;14.60;99.90
52107;DHT22;38105;52.968;5.974;2022-08-21T02:17:44;14.60;99.90
52107;DHT22;38105;52.968;5.974;2022-08-21T02:20:16;14.80;99.90
52107;DHT22;38105;52.968;5.974;2022-08-21T02:22:42;14.70;99.90
52107;DHT22;38105;52.968;5.974;2022-08-21T02:25:08;14.60;99.90
52107;DHT22;38105;52.968;5.974;2022-08-21T02:27:39;14.80;99.90
52107;DHT22;38105;52.968;5.974;2022-08-21T02:30:06;14.70;99.90
52107;DHT22;38105;52.968;5.974;2022-08-21T02:32:31;14.60;99.90
52107;DHT22;38105;52.968;5.974;2022-08-21T02:34:57;14.60;99.90
52107;DHT22;38105;52.968;5.974;2022-08-21T02:37:23;14.50;99.90
52107;DHT22;38105;52.968;5.974;2022-08-21T02:39:49;14.70;99.90
52107;DHT22;38105;52.968;5.974;2022-08-21T02:42:15;14.70;99.90
52107;DHT22;38105;52.968;5.974;2022-08-21T02:44:41;14.60;99.90
52107;DHT22;38105;52.968;5.974;2022-08-21T02:47:07;14.60;99.90
52107;DHT22;38105;52.968;5.974;2022-08-21T02:49:32;14.70;99.90
52107;DHT22;38105;52.968;5.974;2022-08-21T02:51:58;14.70;99.90
52107;DHT22;38105;52.968;5.974;2022-08-21T02:54:23;14.60;99.90
52107;DHT22;38105;52.968;5.974;2022-08-21T02:56:49;14.70;99.90
52107;DHT22;38105;52.968;5.974;2022-08-21T02:59:18;14.50;99.90
52107;DHT22;38105;52.968;5.974;2022-08-21T03:01:44;14.60;99.90
52107;DHT22;38105;52.968;5.974;2022-08-21T03:04:09;14.50;99.90
52107;DHT22;38105;52.968;5.974;2022-08-21T03:06:39;14.60;99.90
52107;DHT22;38105;52.968;5.974;2022-08-21T03:09:04;14.70;99.90
52107;DHT22;38105;52.968;5.974;2022-08-21T03:11:32;14.60;99.90
52107;DHT22;38105;52.968;5.974;2022-08-21T03:13:58;14.70;99.90
52107;DHT22;38105;52.968;5.974;2022-08-21T03:16:24;14.50;99.90
52107;DHT22;38105;52.968;5.974;2022-08-21T03:18:49;14.50;99.90
52107;DHT22;38105;52.968;5.974;2022-08-21T03:21:15;14.60;99.90
52107;DHT22;38105;52.968;5.974;2022-08-21T03:23:41;14.60;99.90
52107;DHT22;38105;52.968;5.974;2022-08-21T03:26:07;14.50;99.90
52107;DHT22;38105;52.968;5.974;2022-08-21T03:28:33;14.60;99.90
52107;DHT22;38105;52.968;5.974;2022-08-21T03:30:59;14.70;99.90
52107;DHT22;38105;52.968;5.974;2022-08-21T03:33:25;14.50;99.90
52107;DHT22;38105;52.968;5.974;2022-08-21T03:36:00;14.60;99.90
52107;DHT22;38105;52.968;5.974;2022-08-21T03:38:28;14.50;99.90
52107;DHT22;38105;52.968;5.974;2022-08-21T03:40:54;14.50;99.90
52107;DHT22;38105;52.968;5.974;2022-08-21T03:43:20;14.50;99.90
52107;DHT22;38105;52.968;5.974;2022-08-21T03:45:46;14.40;99.90
52107;DHT22;38105;52.968;5.974;2022-08-21T03:48:15;14.60;99.90
52107;DHT22;38105;52.968;5.974;2022-08-21T03:50:43;14.50;99.90
52107;DHT22;38105;52.968;5.974;2022-08-21T03:53:11;14.50;99.90
52107;DHT22;38105;52.968;5.974;2022-08-21T03:55:36;14.50;99.90
52107;DHT22;38105;52.968;5.974;2022-08-21T03:58:02;14.70;99.90
52107;DHT22;38105;52.968;5.974;2022-08-21T04:00:31;14.60;99.90
52107;DHT22;38105;52.968;5.974;2022-08-21T04:02:57;14.60;99.90
52107;DHT22;38105;52.968;5.974;2022-08-21T04:05:23;14.60;99.90
52107;DHT22;38105;52.968;5.974;2022-08-21T04:08:01;14.50;99.90
52107;DHT22;38105;52.968;5.974;2022-08-21T04:10:29;14.40;99.90
52107;DHT22;38105;52.968;5.974;2022-08-21T04:12:56;14.50;99.90
52107;DHT22;38105;52.968;5.974;2022-08-21T04:15:23;14.60;99.90
52107;DHT22;38105;52.968;5.974;2022-08-21T04:17:49;14.60;99.90
52107;DHT22;38105;52.968;5.974;2022-08-21T04:20:16;14.50;99.90
52107;DHT22;38105;52.968;5.974;2022-08-21T04:22:43;14.50;99.90
52107;DHT22;38105;52.968;5.974;2022-08-21T04:25:13;14.50;99.90
52107;DHT22;38105;52.968;5.974;2022-08-21T04:27:39;14.60;99.90
52107;DHT22;38105;52.968;5.974;2022-08-21T04:30:06;14.70;99.90
52107;DHT22;38105;52.968;5.974;2022-08-21T04:32:32;14.60;99.90
52107;DHT22;38105;52.968;5.974;2022-08-21T04:35:00;14.50;99.90
52107;DHT22;38105;52.968;5.974;2022-08-21T04:37:26;14.60;99.90
52107;DHT22;38105;52.968;5.974;2022-08-21T04:39:52;14.50;99.90
52107;DHT22;38105;52.968;5.974;2022-08-21T04:42:18;14.70;99.90
52107;DHT22;38105;52.968;5.974;2022-08-21T04:44:44;14.60;99.90
52107;DHT22;38105;52.968;5.974;2022-08-21T04:47:09;14.70;99.90
52107;DHT22;38105;52.968;5.974;2022-08-21T04:49:35;14.80;99.90
52107;DHT22;38105;52.968;5.974;2022-08-21T04:52:01;14.70;99.90
52107;DHT22;38105;52.968;5.974;2022-08-21T04:54:27;14.60;99.90
52107;DHT22;38105;52.968;5.974;2022-08-21T04:56:56;14.90;99.90
52107;DHT22;38105;52.968;5.974;2022-08-21T04:59:30;14.80;99.90
52107;DHT22;38105;52.968;5.974;2022-08-21T05:01:57;14.70;99.90
52107;DHT22;38105;52.968;5.974;2022-08-21T05:04:27;14.80;99.90
52107;DHT22;38105;52.968;5.974;2022-08-21T05:06:57;15.10;99.90
52107;DHT22;38105;52.968;5.974;2022-08-21T05:09:25;15.30;99.90
52107;DHT22;38105;52.968;5.974;2022-08-21T05:11:51;15.40;99.90
52107;DHT22;38105;52.968;5.974;2022-08-21T05:14:24;15.70;99.90
52107;DHT22;38105;52.968;5.974;2022-08-21T05:16:52;15.90;99.90
52107;DHT22;38105;52.968;5.974;2022-08-21T05:19:18;16.00;99.90
52107;DHT22;38105;52.968;5.974;2022-08-21T05:21:45;16.70;99.90
52107;DHT22;38105;52.968;5.974;2022-08-21T05:24:13;17.50;99.90
52107;DHT22;38105;52.968;5.974;2022-08-21T05:26:39;18.20;99.90
52107;DHT22;38105;52.968;5.974;2022-08-21T05:29:06;19.00;99.90
52107;DHT22;38105;52.968;5.974;2022-08-21T05:31:32;19.60;99.90
52107;DHT22;38105;52.968;5.974;2022-08-21T05:33:58;20.10;99.90
52107;DHT22;38105;52.968;5.974;2022-08-21T05:36:23;20.70;99.90
52107;DHT22;38105;52.968;5.974;2022-08-21T05:38:49;21.20;99.90
52107;DHT22;38105;52.968;5.974;2022-08-21T05:41:15;21.70;99.90
52107;DHT22;38105;52.968;5.974;2022-08-21T05:43:42;22.10;99.90
52107;DHT22;38105;52.968;5.974;2022-08-21T05:46:08;22.60;99.90
52107;DHT22;38105;52.968;5.974;2022-08-21T05:48:35;22.80;99.90
52107;DHT22;38105;52.968;5.974;2022-08-21T05:51:05;23.50;99.90
52107;DHT22;38105;52.968;5.974;2022-08-21T05:53:31;23.90;99.90
52107;DHT22;38105;52.968;5.974;2022-08-21T05:55:57;24.40;99.90
52107;DHT22;38105;52.968;5.974;2022-08-21T05:58:22;24.80;99.90
52107;DHT22;38105;52.968;5.974;2022-08-21T06:00:49;25.10;99.90
52107;DHT22;38105;52.968;5.974;2022-08-21T06:03:24;25.50;99.90
52107;DHT22;38105;52.968;5.974;2022-08-21T06:05:50;25.80;99.90
52107;DHT22;38105;52.968;5.974;2022-08-21T06:08:17;26.10;99.90
52107;DHT22;38105;52.968;5.974;2022-08-21T06:10:44;26.30;99.90
52107;DHT22;38105;52.968;5.974;2022-08-21T06:13:10;26.70;99.90
52107;DHT22;38105;52.968;5.974;2022-08-21T06:15:37;27.20;99.90
52107;DHT22;38105;52.968;5.974;2022-08-21T06:18:03;27.60;99.90
52107;DHT22;38105;52.968;5.974;2022-08-21T06:20:29;27.90;99.90
52107;DHT22;38105;52.968;5.974;2022-08-21T06:22:54;27.90;99.90
52107;DHT22;38105;52.968;5.974;2022-08-21T06:25:20;27.90;99.90
52107;DHT22;38105;52.968;5.974;2022-08-21T06:27:46;27.90;99.90
52107;DHT22;38105;52.968;5.974;2022-08-21T06:30:13;28.30;99.90
52107;DHT22;38105;52.968;5.974;2022-08-21T06:32:39;28.00;99.90
52107;DHT22;38105;52.968;5.974;2022-08-21T06:35:07;28.20;99.90
52107;DHT22;38105;52.968;5.974;2022-08-21T06:37:33;28.50;99.70
52107;DHT22;38105;52.968;5.974;2022-08-21T06:39:59;28.50;99.50
52107;DHT22;38105;52.968;5.974;2022-08-21T06:42:25;28.70;99.10
52107;DHT22;38105;52.968;5.974;2022-08-21T06:44:52;28.90;99.00
52107;DHT22;38105;52.968;5.974;2022-08-21T06:47:18;29.00;98.60
52107;DHT22;38105;52.968;5.974;2022-08-21T06:49:43;29.10;98.50
52107;DHT22;38105;52.968;5.974;2022-08-21T06:52:11;29.20;98.30
52107;DHT22;38105;52.968;5.974;2022-08-21T06:54:37;28.40;98.60
52107;DHT22;38105;52.968;5.974;2022-08-21T06:57:03;26.90;99.10
52107;DHT22;38105;52.968;5.974;2022-08-21T06:59:32;25.70;99.90
52107;DHT22;38105;52.968;5.974;2022-08-21T07:01:59;25.20;99.90
52107;DHT22;38105;52.968;5.974;2022-08-21T07:04:25;25.10;99.90
52107;DHT22;38105;52.968;5.974;2022-08-21T07:06:54;25.50;99.90
52107;DHT22;38105;52.968;5.974;2022-08-21T07:09:19;26.00;99.90
52107;DHT22;38105;52.968;5.974;2022-08-21T07:11:51;27.20;99.90
52107;DHT22;38105;52.968;5.974;2022-08-21T07:14:17;27.90;99.90
52107;DHT22;38105;52.968;5.974;2022-08-21T07:16:43;27.90;99.90
52107;DHT22;38105;52.968;5.974;2022-08-21T07:19:09;28.60;99.70
52107;DHT22;38105;52.968;5.974;2022-08-21T07:21:34;29.00;99.00
52107;DHT22;38105;52.968;5.974;2022-08-21T07:24:00;29.20;98.60
52107;DHT22;38105;52.968;5.974;2022-08-21T07:26:26;29.50;98.70
52107;DHT22;38105;52.968;5.974;2022-08-21T07:28:52;30.20;97.90
52107;DHT22;38105;52.968;5.974;2022-08-21T07:31:20;30.70;97.40
52107;DHT22;38105;52.968;5.974;2022-08-21T07:33:47;31.20;96.60
52107;DHT22;38105;52.968;5.974;2022-08-21T07:36:13;31.10;96.40
52107;DHT22;38105;52.968;5.974;2022-08-21T07:38:39;31.50;96.40
52107;DHT22;38105;52.968;5.974;2022-08-21T07:41:13;31.80;95.80
52107;DHT22;38105;52.968;5.974;2022-08-21T07:43:39;32.20;95.20
52107;DHT22;38105;52.968;5.974;2022-08-21T07:46:05;32.50;95.20
52107;DHT22;38105;52.968;5.974;2022-08-21T07:48:33;32.50;94.70
52107;DHT22;38105;52.968;5.974;2022-08-21T07:51:02;33.00;94.20
52107;DHT22;38105;52.968;5.974;2022-08-21T07:53:30;32.80;93.70
52107;DHT22;38105;52.968;5.974;2022-08-21T07:56:01;32.70;93.90
52107;DHT22;38105;52.968;5.974;2022-08-21T07:58:27;32.80;93.90
52107;DHT22;38105;52.968;5.974;2022-08-21T08:00:53;32.70;93.80
52107;DHT22;38105;52.968;5.974;2022-08-21T08:03:19;32.40;93.70
52107;DHT22;38105;52.968;5.974;2022-08-21T08:05:44;32.80;93.90
52107;DHT22;38105;52.968;5.974;2022-08-21T08:08:10;32.90;93.90
52107;DHT22;38105;52.968;5.974;2022-08-21T08:10:38;33.20;93.40
52107;DHT22;38105;52.968;5.974;2022-08-21T08:13:04;33.00;93.20
52107;DHT22;38105;52.968;5.974;2022-08-21T08:15:30;32.80;93.30
52107;DHT22;38105;52.968;5.974;2022-08-21T08:17:57;32.70;93.10
52107;DHT22;38105;52.968;5.974;2022-08-21T08:20:24;33.00;93.20
52107;DHT22;38105;52.968;5.974;2022-08-21T08:22:52;33.00;93.10
52107;DHT22;38105;52.968;5.974;2022-08-21T08:25:20;33.10;93.20
52107;DHT22;38105;52.968;5.974;2022-08-21T08:27:49;33.10;93.20
52107;DHT22;38105;52.968;5.974;2022-08-21T08:30:16;33.80;93.00
52107;DHT22;38105;52.968;5.974;2022-08-21T08:32:44;33.80;92.80
52107;DHT22;38105;52.968;5.974;2022-08-21T08:35:10;34.00;92.90
52107;DHT22;38105;52.968;5.974;2022-08-21T08:37:38;34.60;92.80
52107;DHT22;38105;52.968;5.974;2022-08-21T08:40:52;34.80;92.70
52107;DHT22;38105;52.968;5.974;2022-08-21T08:42:54;34.90;92.30
52107;DHT22;38105;52.968;5.974;2022-08-21T08:45:21;34.80;92.20
52107;DHT22;38105;52.968;5.974;2022-08-21T08:47:56;34.90;92.00
52107;DHT22;38105;52.968;5.974;2022-08-21T08:53:05;34.90;92.00
52107;DHT22;38105;52.968;5.974;2022-08-21T08:55:37;34.40;91.40
52107;DHT22;38105;52.968;5.974;2022-08-21T08:58:07;33.90;92.30
52107;DHT22;38105;52.968;5.974;2022-08-21T09:00:34;33.90;92.50
52107;DHT22;38105;52.968;5.974;2022-08-21T09:03:03;32.90;92.70
52107;DHT22;38105;52.968;5.974;2022-08-21T09:05:43;33.00;93.20
52107;DHT22;38105;52.968;5.974;2022-08-21T09:08:22;33.10;92.30
52107;DHT22;38105;52.968;5.974;2022-08-21T09:11:15;33.70;92.50
52107;DHT22;38105;52.968;5.974;2022-08-21T09:14:20;34.10;92.60
52107;DHT22;38105;52.968;5.974;2022-08-21T09:17:04;33.70;91.80
52107;DHT22;38105;52.968;5.974;2022-08-21T09:27:46;31.20;93.60
52107;DHT22;38105;52.968;5.974;2022-08-21T09:30:12;30.10;94.20
52107;DHT22;38105;52.968;5.974;2022-08-21T09:32:39;28.70;95.00
52107;DHT22;38105;52.968;5.974;2022-08-21T09:35:13;28.80;95.90
52107;DHT22;38105;52.968;5.974;2022-08-21T09:37:56;30.30;96.00
52107;DHT22;38105;52.968;5.974;2022-08-21T09:40:28;32.20;94.70
52107;DHT22;38105;52.968;5.974;2022-08-21T09:43:23;33.60;93.20
52107;DHT22;38105;52.968;5.974;2022-08-21T09:45:50;33.50;92.00
52107;DHT22;38105;52.968;5.974;2022-08-21T09:48:26;32.10;93.10
52107;DHT22;38105;52.968;5.974;2022-08-21T09:50:53;31.20;93.50
52107;DHT22;38105;52.968;5.974;2022-08-21T09:53:22;30.80;94.40
52107;DHT22;38105;52.968;5.974;2022-08-21T09:55:55;31.30;93.80
52107;DHT22;38105;52.968;5.974;2022-08-21T09:58:43;31.90;94.00
52107;DHT22;38105;52.968;5.974;2022-08-21T10:01:22;32.20;92.60
52107;DHT22;38105;52.968;5.974;2022-08-21T10:04:01;32.40;93.60
52107;DHT22;38105;52.968;5.974;2022-08-21T10:06:28;33.00;93.10
52107;DHT22;38105;52.968;5.974;2022-08-21T10:09:13;33.20;92.40
52107;DHT22;38105;52.968;5.974;2022-08-21T10:11:40;33.40;92.20
52107;DHT22;38105;52.968;5.974;2022-08-21T10:17:01;33.50;92.70
52107;DHT22;38105;52.968;5.974;2022-08-21T10:19:58;32.00;91.80
52107;DHT22;38105;52.968;5.974;2022-08-21T10:25:52;31.50;93.50
52107;DHT22;38105;52.968;5.974;2022-08-21T10:37:01;28.40;95.80
52107;DHT22;38105;52.968;5.974;2022-08-21T10:42:31;27.60;96.40
52107;DHT22;38105;52.968;5.974;2022-08-21T10:48:02;27.10;96.80
52107;DHT22;38105;52.968;5.974;2022-08-21T10:51:00;26.90;96.90
52107;DHT22;38105;52.968;5.974;2022-08-21T10:53:50;27.00;97.80
52107;DHT22;38105;52.968;5.974;2022-08-21T10:56:23;27.30;97.60
52107;DHT22;38105;52.968;5.974;2022-08-21T11:04:25;28.40;96.20
52107;DHT22;38105;52.968;5.974;2022-08-21T11:16:05;27.40;96.50
52107;DHT22;38105;52.968;5.974;2022-08-21T11:18:36;27.10;96.00
52107;DHT22;38105;52.968;5.974;2022-08-21T11:21:20;27.00;97.70
52107;DHT22;38105;52.968;5.974;2022-08-21T11:24:22;26.70;96.50
52107;DHT22;38105;52.968;5.974;2022-08-21T11:29:35;26.60;98.30
52107;DHT22;38105;52.968;5.974;2022-08-21T11:32:25;26.50;96.90
52107;DHT22;38105;52.968;5.974;2022-08-21T11:38:19;26.30;97.00
52107;DHT22;38105;52.968;5.974;2022-08-21T11:43:40;25.90;97.10
52107;DHT22;38105;52.968;5.974;2022-08-21T11:46:39;25.80;97.20
52107;DHT22;38105;52.968;5.974;2022-08-21T11:54:34;25.70;98.60
52107;DHT22;38105;52.968;5.974;2022-08-21T11:57:13;25.60;99.70
52107;DHT22;38105;52.968;5.974;2022-08-21T11:59:47;25.40;99.90
52107;DHT22;38105;52.968;5.974;2022-08-21T12:02:18;25.20;99.90
52107;DHT22;38105;52.968;5.974;2022-08-21T12:05:00;25.10;99.90
52107;DHT22;38105;52.968;5.974;2022-08-21T12:07:31;25.00;99.90
52107;DHT22;38105;52.968;5.974;2022-08-21T12:09:58;24.80;99.90
52107;DHT22;38105;52.968;5.974;2022-08-21T12:12:30;24.80;99.90
52107;DHT22;38105;52.968;5.974;2022-08-21T12:20:38;25.10;99.90
52107;DHT22;38105;52.968;5.974;2022-08-21T12:26:03;25.10;99.90
52107;DHT22;38105;52.968;5.974;2022-08-21T12:28:35;25.10;99.90
52107;DHT22;38105;52.968;5.974;2022-08-21T12:31:01;25.10;99.90
52107;DHT22;38105;52.968;5.974;2022-08-21T12:33:33;24.90;99.90
52107;DHT22;38105;52.968;5.974;2022-08-21T12:36:10;24.70;99.90
52107;DHT22;38105;52.968;5.974;2022-08-21T12:38:54;24.40;99.90
52107;DHT22;38105;52.968;5.974;2022-08-21T12:41:24;24.50;99.90
52107;DHT22;38105;52.968;5.974;2022-08-21T12:43:59;24.50;99.90
52107;DHT22;38105;52.968;5.974;2022-08-21T12:46:34;24.20;99.90
52107;DHT22;38105;52.968;5.974;2022-08-21T12:49:08;24.30;99.90
52107;DHT22;38105;52.968;5.974;2022-08-21T12:54:39;24.60;99.90
52107;DHT22;38105;52.968;5.974;2022-08-21T12:57:06;24.90;99.90
52107;DHT22;38105;52.968;5.974;2022-08-21T12:59:37;25.20;99.90
52107;DHT22;38105;52.968;5.974;2022-08-21T13:02:08;25.40;99.90
52107;DHT22;38105;52.968;5.974;2022-08-21T13:04:41;25.60;99.90
52107;DHT22;38105;52.968;5.974;2022-08-21T13:07:09;25.50;99.90
52107;DHT22;38105;52.968;5.974;2022-08-21T13:09:47;25.60;99.90
52107;DHT22;38105;52.968;5.974;2022-08-21T13:12:15;25.90;99.90
52107;DHT22;38105;52.968;5.974;2022-08-21T13:14:43;26.30;99.90
52107;DHT22;38105;52.968;5.974;2022-08-21T13:17:11;26.30;99.90
52107;DHT22;38105;52.968;5.974;2022-08-21T13:19:37;26.40;99.90
52107;DHT22;38105;52.968;5.974;2022-08-21T13:22:03;26.50;99.90
52107;DHT22;38105;52.968;5.974;2022-08-21T13:24:34;26.60;99.90
52107;DHT22;38105;52.968;5.974;2022-08-21T13:27:00;26.60;99.90
52107;DHT22;38105;52.968;5.974;2022-08-21T13:29:30;26.70;99.90
52107;DHT22;38105;52.968;5.974;2022-08-21T13:32:02;26.60;99.90
52107;DHT22;38105;52.968;5.974;2022-08-21T13:34:35;26.40;99.90
52107;DHT22;38105;52.968;5.974;2022-08-21T13:37:04;26.20;99.90
52107;DHT22;38105;52.968;5.974;2022-08-21T13:39:31;26.20;99.90
52107;DHT22;38105;52.968;5.974;2022-08-21T13:41:59;26.20;99.90
52107;DHT22;38105;52.968;5.974;2022-08-21T13:44:42;26.10;99.90
52107;DHT22;38105;52.968;5.974;2022-08-21T13:47:10;26.40;99.90
52107;DHT22;38105;52.968;5.974;2022-08-21T13:49:49;26.60;99.90
52107;DHT22;38105;52.968;5.974;2022-08-21T13:52:26;26.70;98.90
52107;DHT22;38105;52.968;5.974;2022-08-21T13:54:57;26.50;98.20
52107;DHT22;38105;52.968;5.974;2022-08-21T13:57:29;26.50;98.10
52107;DHT22;38105;52.968;5.974;2022-08-21T14:00:19;26.10;97.60
52107;DHT22;38105;52.968;5.974;2022-08-21T14:02:49;25.80;98.30
52107;DHT22;38105;52.968;5.974;2022-08-21T14:07:47;25.70;98.70
52107;DHT22;38105;52.968;5.974;2022-08-21T14:10:20;25.90;99.00
52107;DHT22;38105;52.968;5.974;2022-08-21T14:12:55;26.00;98.00
52107;DHT22;38105;52.968;5.974;2022-08-21T14:15:26;25.80;97.80
52107;DHT22;38105;52.968;5.974;2022-08-21T14:17:54;25.90;98.40
52107;DHT22;38105;52.968;5.974;2022-08-21T14:20:32;25.90;97.90
52107;DHT22;38105;52.968;5.974;2022-08-21T14:22:58;25.90;98.50
52107;DHT22;38105;52.968;5.974;2022-08-21T14:27:56;25.70;97.60
52107;DHT22;38105;52.968;5.974;2022-08-21T14:30:30;25.60;97.50
52107;DHT22;38105;52.968;5.974;2022-08-21T14:32:57;25.50;96.90
52107;DHT22;38105;52.968;5.974;2022-08-21T14:35:24;25.50;97.80
52107;DHT22;38105;52.968;5.974;2022-08-21T14:37:50;25.50;97.70
52107;DHT22;38105;52.968;5.974;2022-08-21T14:40:16;25.60;97.70
52107;DHT22;38105;52.968;5.974;2022-08-21T14:42:43;25.80;98.10
52107;DHT22;38105;52.968;5.974;2022-08-21T14:47:40;25.60;96.50
52107;DHT22;38105;52.968;5.974;2022-08-21T14:50:08;25.70;97.30
52107;DHT22;38105;52.968;5.974;2022-08-21T14:52:35;25.60;97.30
52107;DHT22;38105;52.968;5.974;2022-08-21T14:55:02;25.60;97.30
52107;DHT22;38105;52.968;5.974;2022-08-21T14:57:30;25.30;97.10
52107;DHT22;38105;52.968;5.974;2022-08-21T14:59:56;25.20;97.20
52107;DHT22;38105;52.968;5.974;2022-08-21T15:02:22;25.10;97.70
52107;DHT22;38105;52.968;5.974;2022-08-21T15:04:47;25.10;97.80
52107;DHT22;38105;52.968;5.974;2022-08-21T15:07:13;25.10;97.70
52107;DHT22;38105;52.968;5.974;2022-08-21T15:09:38;25.10;97.70
52107;DHT22;38105;52.968;5.974;2022-08-21T15:12:07;25.10;98.10
52107;DHT22;38105;52.968;5.974;2022-08-21T15:14:36;25.10;98.70
52107;DHT22;38105;52.968;5.974;2022-08-21T15:17:04;24.80;97.20
52107;DHT22;38105;52.968;5.974;2022-08-21T15:19:30;24.70;97.40
52107;DHT22;38105;52.968;5.974;2022-08-21T15:21:56;24.60;97.50
52107;DHT22;38105;52.968;5.974;2022-08-21T15:24:22;24.80;97.80
52107;DHT22;38105;52.968;5.974;2022-08-21T15:26:51;24.60;97.60
52107;DHT22;38105;52.968;5.974;2022-08-21T15:29:17;24.50;97.40
52107;DHT22;38105;52.968;5.974;2022-08-21T15:31:58;24.60;97.80
52107;DHT22;38105;52.968;5.974;2022-08-21T15:34:26;24.60;97.90
52107;DHT22;38105;52.968;5.974;2022-08-21T15:36:56;24.70;97.90
52107;DHT22;38105;52.968;5.974;2022-08-21T15:39:24;24.60;97.80
52107;DHT22;38105;52.968;5.974;2022-08-21T15:41:50;24.60;98.00
52107;DHT22;38105;52.968;5.974;2022-08-21T15:44:16;24.50;97.90
52107;DHT22;38105;52.968;5.974;2022-08-21T15:46:42;24.40;97.90
52107;DHT22;38105;52.968;5.974;2022-08-21T15:49:10;24.30;98.20
52107;DHT22;38105;52.968;5.974;2022-08-21T15:51:41;24.20;98.00
52107;DHT22;38105;52.968;5.974;2022-08-21T15:54:09;24.30;98.40
52107;DHT22;38105;52.968;5.974;2022-08-21T15:56:40;24.30;98.30
52107;DHT22;38105;52.968;5.974;2022-08-21T15:59:18;24.30;98.70
52107;DHT22;38105;52.968;5.974;2022-08-21T16:01:50;24.30;98.50
52107;DHT22;38105;52.968;5.974;2022-08-21T16:04:27;24.20;98.50
52107;DHT22;38105;52.968;5.974;2022-08-21T16:06:53;24.20;98.60
52107;DHT22;38105;52.968;5.974;2022-08-21T16:09:19;24.20;99.20
52107;DHT22;38105;52.968;5.974;2022-08-21T16:11:46;24.10;99.60
52107;DHT22;38105;52.968;5.974;2022-08-21T16:14:14;24.00;99.60
52107;DHT22;38105;52.968;5.974;2022-08-21T16:16:40;23.90;99.80
52107;DHT22;38105;52.968;5.974;2022-08-21T16:19:06;23.80;99.90
52107;DHT22;38105;52.968;5.974;2022-08-21T16:21:33;23.80;99.90
52107;DHT22;38105;52.968;5.974;2022-08-21T16:23:59;23.80;99.90
52107;DHT22;38105;52.968;5.974;2022-08-21T16:26:26;23.70;99.90
52107;DHT22;38105;52.968;5.974;2022-08-21T16:28:54;23.60;99.90
52107;DHT22;38105;52.968;5.974;2022-08-21T16:31:23;23.50;99.90
52107;DHT22;38105;52.968;5.974;2022-08-21T16:33:53;23.40;99.90
52107;DHT22;38105;52.968;5.974;2022-08-21T16:36:20;23.20;99.90
52107;DHT22;38105;52.968;5.974;2022-08-21T16:38:46;23.20;99.90
52107;DHT22;38105;52.968;5.974;2022-08-21T16:41:16;23.10;99.90
52107;DHT22;38105;52.968;5.974;2022-08-21T16:43:44;23.10;99.90
52107;DHT22;38105;52.968;5.974;2022-08-21T16:46:12;23.00;99.90
52107;DHT22;38105;52.968;5.974;2022-08-21T16:48:39;23.00;99.90
52107;DHT22;38105;52.968;5.974;2022-08-21T16:51:05;22.90;99.90
52107;DHT22;38105;52.968;5.974;2022-08-21T16:53:31;22.90;99.90
52107;DHT22;38105;52.968;5.974;2022-08-21T16:55:57;22.80;99.90
52107;DHT22;38105;52.968;5.974;2022-08-21T16:58:25;22.80;99.90
52107;DHT22;38105;52.968;5.974;2022-08-21T17:00:52;22.70;99.90
52107;DHT22;38105;52.968;5.974;2022-08-21T17:03:20;22.50;99.90